This is the latest recevied weather packets stored in our database for station/object WX4LTG. If no packets are shown the sender has not sent any weather packets the latest 1 day(s).
| Time | Temp. | Humidity | Pressure | Rain* | Wind** | Luminosity | Snow |
|---|---|---|---|---|---|---|---|
| 1778019282 | 25.56° C | 27% | 1010.2 hPa | 0 mm | 4.47 m/s, 251° | 644 W/m² | - |
| 1778018979 | 24.44° C | 28% | 1010.2 hPa | 0 mm | 1.79 m/s, 228° | 656 W/m² | - |
| 1778018676 | 23.89° C | 28% | 1010.1 hPa | 0 mm | 0 m/s | 139 W/m² | - |
| 1778018374 | 24.44° C | 28% | 1010.2 hPa | 0 mm | 3.58 m/s, 222° | 163 W/m² | - |
| 1778018072 | 25° C | 28% | 1010 hPa | 0 mm | 2.24 m/s, 247° | 684 W/m² | - |
| 1778017769 | 24.44° C | 28% | 1009.9 hPa | 0 mm | 3.58 m/s, 230° | 694 W/m² | - |
| 1778017467 | 23.89° C | 29% | 1010.3 hPa | 0 mm | 3.13 m/s, 219° | 254 W/m² | - |
| 1778017164 | 23.89° C | 29% | 1009.9 hPa | 0 mm | 2.68 m/s, 249° | 218 W/m² | - |
| 1778016861 | 23.89° C | 29% | 1010.1 hPa | 0 mm | 2.68 m/s, 250° | 167 W/m² | - |
| 1778016557 | 23.89° C | 29% | 1010.1 hPa | 0 mm | 1.34 m/s, 210° | 174 W/m² | - |
| 1778016254 | 24.44° C | 29% | 1010 hPa | 0 mm | 1.34 m/s, 158° | 122 W/m² | - |
| 1778015951 | 25.56° C | 28% | 1010.1 hPa | 0 mm | 4.02 m/s, 229° | 465 W/m² | - |
| 1778015649 | 25.56° C | 28% | 1010.3 hPa | 0 mm | 2.68 m/s, 25° | 733 W/m² | - |
| 1778015344 | 25° C | 29% | 1010.3 hPa | 0 mm | 1.34 m/s, 233° | 755 W/m² | - |
| 1778015042 | 24.44° C | 30% | 1010.5 hPa | 0 mm | 3.58 m/s, 209° | 129 W/m² | - |
| 1778014739 | 24.44° C | 30% | 1010.4 hPa | 0 mm | 1.34 m/s, 323° | 772 W/m² | - |
| 1778014437 | 24.44° C | 30% | 1010.5 hPa | 0 mm | 2.24 m/s, 262° | 759 W/m² | - |
| 1778014133 | 25.56° C | 29% | 1010.6 hPa | 0 mm | 0 m/s | 779 W/m² | - |
| 1778013831 | 25.56° C | 29% | 1010.6 hPa | 0 mm | 2.68 m/s, 239° | 831 W/m² | - |
| 1778013528 | 25° C | 31% | 1010.6 hPa | 0 mm | 2.24 m/s, 217° | 882 W/m² | - |
| 1778013224 | 24.44° C | 31% | 1010.8 hPa | 0 mm | 1.34 m/s, 319° | 803 W/m² | - |
| 1778012921 | 23.33° C | 32% | 1010.8 hPa | 0 mm | 1.79 m/s, 269° | 848 W/m² | - |
| 1778012617 | 24.44° C | 32% | 1010.7 hPa | 0 mm | 4.02 m/s, 230° | 181 W/m² | - |
| 1778012314 | 23.89° C | 32% | 1010.8 hPa | 0 mm | 1.34 m/s, 163° | 834 W/m² | - |
| 1778012011 | 23.89° C | 32% | 1010.6 hPa | 0 mm | 3.13 m/s, 249° | 858 W/m² | - |
* Rain latest hour (hover to see other rain measurements)
** Current wind speed in m/s (hover to see current wind gust speed)